Fairbanks, AK

7:05 AM AKDT on August 29, 2014 (GMT -0800)
Fairbanks International | Change Station
CLOSE
Current Station
Airport
Location: Fairbanks,
Elevation: 433 ft
Nearby Weather Stations
Active Advisory: Frost Advisory Active Notice: Record Report

Elev 433 ft 64.80 °N, 147.88 °W | Updated 51 minutes ago

Overcast
Overcast
50 °F
Feels Like 50 °F
N
4
Wind Variable Wind from SW

Today
High -- | Low -- °F
--% Chance of Precip.
Yesterday
High -- | Low -- °F
Precip. -- in
6:22 AM 9:19 PM
Waxing Crescent, 14% visible
Pressure 29.53 in
Visibility 10.0 miles
Clouds Few 800 ft
Mostly Cloudy 3000 ft
Overcast 8000 ft
Dew Point 46 °F
Humidity 86%
Rainfall 0.03 in
Snow Depth Not available.
UV 0 out of 12
Pollen Not available.
Air Quality Not available.
Flu Activity Not available.
SPECI PAFA 291414Z 23003KT 10SM FEW008 BKN030 OVC080 10/08 A2953 RMK AO2 RAE14 VIS LWR N-NE P0000 T01000078

More Conditions Fewer Conditions

Pressure 29.53 in
Visibility 10.0 miles
Clouds Few 800 ft
Mostly Cloudy 3000 ft
Overcast 8000 ft
Dew Point 46 °F
Humidity 86%
Rainfall 0.03 in
Snow Depth Not available.
UV 0 out of 12
Pollen Not available.
Air Quality Not available.
Flu Activity Not available.
SPECI PAFA 291414Z 23003KT 10SM FEW008 BKN030 OVC080 10/08 A2953 RMK AO2 RAE14 VIS LWR N-NE P0000 T01000078

More Conditions Fewer Conditions

10-Day Weather Forecast

Almanac

Astronomy

Aug. 29, 2014 Rise Set
Actual Time 6:22 AM AKDT 9:19 PM AKDT
Civil Twilight 5:25 AM AKDT 10:15 PM AKDT
Nautical Twilight 4:01 AM AKDT 11:36 PM AKDT
Astronomical Twilight 2:24 AM AKDT 1:19 AM AKDT
Moon 12:04 PM AKDT 9:33 PM AKDT
Length of Visible Light 16h 49m
Length of Day
14h 56m
Tomorrow will be 6m 44s shorter.
Waxing Crescent, 14% of the Moon is Illuminated
Today
Waxing Crescent
Sep 2
First Quarter
Sep 8
Full
Sep 15
Last Quarter
Sep 24
New

Today's Extremes

State Highs State Lows

Community

WunderPhotos

Upload Photos

1,748,263 photos uploaded!

Nearby

Snow Depth

Station Depth Elevation
Little Chena Ridge 1 in 2000 ft
Munson Ridge 1 in 3100 ft
Monument Creek 0 in 1850 ft
Eagle Summit 0 in 3650 ft
Upper Chena 1 in 2850 ft

Earthquake Activity

City Distance Mag. Time & Date
No recent earthquake activity has been reported nearby.
Minimum magnitude displayed is 2.5.

Coastal Water Temperatures

Place Temperature
No Stations Reporting

Nearby Weather Stations